createdAt,value
2022-08-14T00:02:24.528Z,7.45
2022-08-14T00:04:56.199Z,6.28
2022-08-14T00:07:25.532Z,7.55
2022-08-14T00:10:01.502Z,5.32
2022-08-14T00:12:48.014Z,5.68
2022-08-14T00:15:30.027Z,5.93
2022-08-14T00:18:07.963Z,6.40
2022-08-14T00:20:43.754Z,5.60
2022-08-14T00:23:16.786Z,6.03
2022-08-14T00:25:59.017Z,6.00
2022-08-14T00:28:36.053Z,6.20
2022-08-14T00:31:06.761Z,5.50
2022-08-14T00:33:51.595Z,5.78
2022-08-14T00:36:35.717Z,5.47
2022-08-14T00:39:17.951Z,4.93
2022-08-14T00:41:46.946Z,6.20
2022-08-14T00:44:27.507Z,6.82
2022-08-14T00:47:00.885Z,6.75
2022-08-14T00:49:31.104Z,5.18
2022-08-14T00:52:07.069Z,6.25
2022-08-14T00:54:38.841Z,6.37
2022-08-14T00:57:08.485Z,5.55
2022-08-14T00:59:37.499Z,5.55
2022-08-14T01:02:06.583Z,5.55
2022-08-14T01:04:53.749Z,4.80
2022-08-14T01:07:24.012Z,5.40
2022-08-14T01:09:55.893Z,5.12
2022-08-14T01:12:27.137Z,5.37
2022-08-14T01:14:58.975Z,5.32
2022-08-14T01:17:50.780Z,5.68
2022-08-14T01:20:40.993Z,5.40
2022-08-14T01:23:16.548Z,5.57
2022-08-14T01:25:49.168Z,5.40
2022-08-14T01:28:46.132Z,5.60
2022-08-14T01:31:14.167Z,5.90
2022-08-14T01:34:00.166Z,6.95
2022-08-14T01:36:37.917Z,5.43
2022-08-14T01:39:13.325Z,5.78
2022-08-14T01:41:43.935Z,5.05
2022-08-14T01:44:33.364Z,5.90
2022-08-14T01:47:09.635Z,5.50
2022-08-14T01:49:46.197Z,5.45
2022-08-14T01:52:34.669Z,5.60
2022-08-14T01:55:17.428Z,6.00
2022-08-14T01:57:49.666Z,7.07
2022-08-14T02:00:36.039Z,5.70
2022-08-14T02:03:06.765Z,5.80
2022-08-14T02:05:38.327Z,4.95
2022-08-14T02:08:09.966Z,5.72
2022-08-14T02:10:46.815Z,6.00
2022-08-14T02:13:19.084Z,5.53
2022-08-14T02:15:48.601Z,7.37
2022-08-14T02:18:18.935Z,5.95
2022-08-14T02:20:48.939Z,6.22
2022-08-14T02:23:29.120Z,7.93
2022-08-14T02:26:24.847Z,7.53
2022-08-14T02:28:57.845Z,7.40
2022-08-14T02:31:42.191Z,7.87
2022-08-14T02:34:22.275Z,5.82
2022-08-14T02:37:04.485Z,5.37
2022-08-14T02:39:37.264Z,5.53
2022-08-14T02:42:13.114Z,5.15
2022-08-14T02:44:49.334Z,5.47
2022-08-14T02:47:20.915Z,5.72
2022-08-14T02:49:54.641Z,4.68
2022-08-14T02:52:55.555Z,6.12
2022-08-14T02:55:12.301Z,5.62
2022-08-14T02:57:57.784Z,5.80
2022-08-14T03:00:33.076Z,5.70
2022-08-14T03:03:02.672Z,5.05
2022-08-14T03:05:41.086Z,5.78
2022-08-14T03:08:15.331Z,5.50
2022-08-14T03:10:49.007Z,5.07
2022-08-14T03:13:21.256Z,5.22
2022-08-14T03:15:55.478Z,5.10
2022-08-14T03:18:31.294Z,5.90
2022-08-14T03:21:07.609Z,6.45
2022-08-14T03:23:38.673Z,7.00
2022-08-14T03:26:12.852Z,6.28
2022-08-14T03:28:49.372Z,5.97
2022-08-14T03:31:22.476Z,6.60
2022-08-14T03:33:54.288Z,6.60
2022-08-14T03:37:38.010Z,6.40
2022-08-14T03:39:21.933Z,7.78
2022-08-14T03:41:56.148Z,8.07
2022-08-14T03:45:19.257Z,6.95
2022-08-14T03:47:22.475Z,6.22
2022-08-14T03:50:11.775Z,6.82
2022-08-14T03:52:41.128Z,6.40
2022-08-14T03:55:16.044Z,6.72
2022-08-14T03:57:45.061Z,6.53
2022-08-14T04:00:40.354Z,6.43
2022-08-14T04:03:06.406Z,7.47
2022-08-14T04:05:42.527Z,7.35
2022-08-14T04:08:29.522Z,8.07
2022-08-14T04:11:00.848Z,8.13
2022-08-14T04:13:31.517Z,7.47
2022-08-14T04:16:06.673Z,7.50
2022-08-14T04:18:39.685Z,7.07
2022-08-14T04:21:10.458Z,6.65
2022-08-14T04:23:39.735Z,6.93
2022-08-14T04:26:14.866Z,6.53
2022-08-14T04:29:06.742Z,6.72
2022-08-14T04:32:57.527Z,6.87
2022-08-14T04:34:31.658Z,6.28
2022-08-14T04:37:22.154Z,6.25
2022-08-14T04:40:11.855Z,8.02
2022-08-14T04:42:58.134Z,7.25
2022-08-14T04:45:38.679Z,7.10
2022-08-14T04:48:36.684Z,6.50
2022-08-14T04:51:06.504Z,7.80
2022-08-14T04:53:42.747Z,8.20
2022-08-14T04:56:31.250Z,7.75
2022-08-14T04:59:10.710Z,8.77
2022-08-14T05:01:48.962Z,8.73
2022-08-14T05:04:21.173Z,8.63
2022-08-14T05:06:54.302Z,8.27
2022-08-14T05:09:24.331Z,7.45
2022-08-14T05:11:53.024Z,7.43
2022-08-14T05:14:43.427Z,7.53
2022-08-14T05:17:11.578Z,7.72
2022-08-14T05:19:44.705Z,8.23
2022-08-14T05:22:30.078Z,7.15
2022-08-14T05:24:58.953Z,8.30
2022-08-14T05:27:27.593Z,8.10
2022-08-14T05:30:01.175Z,7.95
2022-08-14T05:32:29.067Z,7.45
2022-08-14T05:34:59.970Z,7.35
2022-08-14T05:37:30.839Z,6.68
2022-08-14T05:40:02.028Z,6.85
2022-08-14T05:42:32.164Z,6.85
2022-08-14T05:45:11.148Z,7.00
2022-08-14T05:47:43.042Z,7.47
2022-08-14T05:50:17.354Z,7.12
2022-08-14T05:52:50.218Z,7.05
2022-08-14T05:55:21.953Z,7.10
2022-08-14T05:57:54.168Z,6.80
2022-08-14T06:00:29.382Z,6.80
2022-08-14T06:03:04.163Z,6.65
2022-08-14T06:05:38.822Z,6.00
2022-08-14T06:08:31.479Z,6.22
2022-08-14T06:11:06.049Z,6.85
2022-08-14T06:13:41.105Z,6.32
2022-08-14T06:16:17.924Z,6.50
2022-08-14T06:18:48.318Z,5.93
2022-08-14T06:21:17.792Z,6.43
2022-08-14T06:23:48.805Z,6.10
2022-08-14T06:26:20.727Z,6.55
2022-08-14T06:28:52.425Z,6.43
2022-08-14T06:31:20.801Z,7.60
2022-08-14T06:35:02.441Z,6.90
2022-08-14T06:36:39.473Z,6.20
2022-08-14T06:39:09.890Z,7.00
2022-08-14T06:41:57.877Z,6.65
2022-08-14T06:44:32.554Z,6.95
2022-08-14T06:47:03.287Z,7.68
2022-08-14T06:49:40.623Z,6.95
2022-08-14T06:52:18.185Z,6.30
2022-08-14T06:54:47.410Z,6.30
2022-08-14T06:57:15.333Z,7.10
2022-08-14T06:59:43.582Z,6.50
2022-08-14T07:02:29.840Z,7.22
2022-08-14T07:05:17.021Z,6.45
2022-08-14T07:07:52.627Z,7.43
2022-08-14T07:10:22.078Z,6.62
2022-08-14T07:13:01.971Z,6.50
2022-08-14T07:15:34.005Z,6.25
2022-08-14T07:18:03.538Z,6.43
2022-08-14T07:20:32.221Z,5.97
2022-08-14T07:23:07.381Z,5.68
2022-08-14T07:25:37.770Z,6.57
2022-08-14T07:28:21.115Z,5.80
2022-08-14T07:30:50.779Z,6.18
2022-08-14T07:33:24.785Z,6.50
2022-08-14T07:35:59.627Z,6.18
2022-08-14T07:38:34.057Z,5.78
2022-08-14T07:41:11.655Z,5.50
2022-08-14T07:43:53.059Z,5.47
2022-08-14T07:46:28.454Z,5.90
2022-08-14T07:48:58.246Z,5.60
2022-08-14T07:51:34.389Z,6.53
2022-08-14T07:54:11.178Z,5.68
2022-08-14T07:56:47.156Z,6.18
2022-08-14T07:59:18.879Z,6.82
2022-08-14T08:01:51.272Z,5.85
2022-08-14T08:04:24.476Z,5.47
2022-08-14T08:06:53.747Z,5.20
2022-08-14T08:09:32.044Z,5.65
2022-08-14T08:12:04.905Z,5.68
2022-08-14T08:14:56.015Z,5.78
2022-08-14T08:17:28.299Z,5.85
2022-08-14T08:20:03.295Z,5.60
2022-08-14T08:22:32.659Z,5.43
2022-08-14T08:25:02.016Z,5.12
2022-08-14T08:27:30.369Z,5.50
2022-08-14T08:30:09.943Z,5.93
2022-08-14T08:32:41.412Z,5.22
2022-08-14T08:35:18.805Z,5.62
2022-08-14T08:37:47.147Z,5.22
2022-08-14T08:40:31.457Z,5.30
2022-08-14T08:43:01.319Z,5.32
2022-08-14T08:45:29.630Z,5.50
2022-08-14T08:47:57.588Z,5.72
2022-08-14T08:53:02.049Z,5.70
2022-08-14T08:55:38.389Z,5.65
2022-08-14T08:58:16.111Z,5.45
2022-08-14T09:00:50.264Z,4.87
2022-08-14T09:03:25.554Z,5.25
2022-08-14T09:05:57.807Z,5.05
2022-08-14T09:08:32.553Z,5.72
2022-08-14T09:11:19.486Z,6.12
2022-08-14T09:13:51.307Z,5.32
2022-08-14T09:16:25.326Z,5.57
2022-08-14T09:18:55.149Z,5.20
2022-08-14T09:21:25.003Z,5.75
2022-08-14T09:24:29.133Z,5.05
2022-08-14T09:26:50.662Z,5.30
2022-08-14T09:29:23.155Z,4.68
2022-08-14T09:31:57.603Z,5.28
2022-08-14T09:34:58.472Z,4.35
2022-08-14T09:37:43.976Z,3.53
2022-08-14T09:40:21.993Z,4.57
2022-08-14T09:43:01.524Z,4.22
2022-08-14T09:45:39.996Z,4.15
2022-08-14T09:48:27.492Z,3.97
2022-08-14T09:50:57.376Z,4.10
2022-08-14T09:54:18.399Z,3.33
2022-08-14T09:56:31.640Z,4.30
2022-08-14T09:59:14.923Z,4.30
2022-08-14T10:01:46.188Z,4.05
2022-08-14T10:04:34.656Z,3.30
2022-08-14T10:07:04.089Z,3.30
2022-08-14T10:09:33.240Z,3.75
2022-08-14T10:12:05.038Z,3.67
2022-08-14T10:14:37.183Z,3.60
2022-08-14T10:17:08.404Z,3.30
2022-08-14T10:19:48.848Z,3.10
2022-08-14T10:23:12.192Z,4.03
2022-08-14T10:25:14.172Z,3.55
2022-08-14T10:27:46.435Z,3.20
2022-08-14T10:30:22.732Z,3.85
2022-08-14T10:32:55.606Z,3.35
2022-08-14T10:35:31.112Z,3.62
2022-08-14T10:38:01.812Z,2.92
2022-08-14T10:40:43.445Z,3.30
2022-08-14T10:43:23.136Z,3.60
2022-08-14T10:46:03.951Z,4.03
2022-08-14T10:48:57.442Z,3.60
2022-08-14T10:51:26.723Z,3.80
2022-08-14T10:54:01.851Z,4.53
2022-08-14T10:56:45.519Z,4.18
2022-08-14T10:59:14.020Z,4.22
2022-08-14T11:01:43.287Z,4.10
2022-08-14T11:04:25.924Z,4.07
2022-08-14T11:06:56.630Z,3.97
2022-08-14T11:09:26.519Z,3.80
2022-08-14T11:12:34.372Z,3.83
2022-08-14T11:14:56.331Z,4.45
2022-08-14T11:17:32.076Z,4.18
2022-08-14T11:20:02.526Z,4.43
2022-08-14T11:22:55.624Z,4.53
2022-08-14T11:25:23.699Z,4.40
2022-08-14T11:27:55.016Z,4.43
2022-08-14T11:30:51.515Z,4.57
2022-08-14T11:33:16.365Z,4.57
2022-08-14T11:35:49.700Z,3.72
2022-08-14T11:38:21.443Z,4.00
2022-08-14T11:40:49.800Z,4.62
2022-08-14T11:43:29.229Z,4.10
2022-08-14T11:45:58.344Z,4.50
2022-08-14T11:49:03.774Z,4.22
2022-08-14T11:51:23.744Z,4.35
2022-08-14T11:53:55.052Z,4.50
2022-08-14T11:56:25.218Z,3.70
2022-08-14T11:58:55.400Z,4.37
2022-08-14T12:01:30.908Z,4.62
2022-08-14T12:04:31.582Z,4.20
2022-08-14T12:07:01.211Z,4.07
2022-08-14T12:09:32.020Z,4.30
2022-08-14T12:12:00.584Z,4.05
2022-08-14T12:14:35.433Z,4.05
2022-08-14T12:17:06.526Z,3.83
2022-08-14T12:19:51.555Z,3.90
2022-08-14T12:22:35.149Z,4.10
2022-08-14T12:25:10.680Z,3.60
2022-08-14T12:27:52.481Z,3.62
2022-08-14T12:30:42.676Z,3.55
2022-08-14T12:33:25.672Z,3.28
2022-08-14T12:36:05.464Z,3.50
2022-08-14T12:38:36.518Z,3.47
2022-08-14T12:41:10.591Z,3.17
2022-08-14T12:43:48.049Z,3.83
2022-08-14T12:46:27.371Z,3.33
2022-08-14T12:48:58.563Z,3.70
2022-08-14T12:51:30.668Z,3.20
2022-08-14T12:54:00.280Z,3.50
2022-08-14T12:56:33.239Z,3.58
2022-08-14T12:59:04.506Z,3.90
2022-08-14T13:01:59.611Z,3.75
2022-08-14T13:04:23.264Z,4.40
2022-08-14T13:06:53.712Z,3.70
2022-08-14T13:09:27.856Z,3.80
2022-08-14T13:12:31.934Z,3.87
2022-08-14T13:14:57.709Z,3.40
2022-08-14T13:17:26.896Z,3.78
2022-08-14T13:19:58.474Z,3.72
2022-08-14T13:22:33.161Z,3.92
2022-08-14T13:25:05.273Z,4.03
2022-08-14T13:27:39.125Z,4.07
2022-08-14T13:30:14.452Z,3.70
2022-08-14T13:32:53.437Z,4.20
2022-08-14T13:35:22.609Z,3.80
2022-08-14T13:37:53.802Z,4.30
2022-08-14T13:40:26.369Z,3.83
2022-08-14T13:42:56.751Z,3.83
2022-08-14T13:45:59.656Z,3.87
2022-08-14T13:48:28.653Z,3.78
2022-08-14T13:51:05.367Z,4.20
2022-08-14T13:54:07.006Z,3.55
2022-08-14T13:56:37.970Z,3.95
2022-08-14T13:59:07.399Z,3.95
2022-08-14T14:01:43.458Z,3.53
2022-08-14T14:04:19.333Z,4.20
2022-08-14T14:06:49.890Z,4.12
2022-08-14T14:09:32.388Z,4.30
2022-08-14T14:12:08.071Z,4.00
2022-08-14T14:14:57.332Z,3.87
2022-08-14T14:17:33.370Z,3.50
2022-08-14T14:20:04.662Z,3.97
2022-08-14T14:22:35.790Z,4.15
2022-08-14T14:25:22.676Z,3.92
2022-08-14T14:27:53.361Z,3.62
2022-08-14T14:30:52.435Z,3.60
2022-08-14T14:33:42.473Z,3.35
2022-08-14T14:36:04.860Z,3.67
2022-08-14T14:38:34.824Z,3.30
2022-08-14T14:41:05.818Z,3.53
2022-08-14T14:43:37.333Z,3.50
2022-08-14T14:46:09.976Z,3.37
2022-08-14T14:48:46.515Z,3.72
2022-08-14T14:51:24.208Z,3.35
2022-08-14T14:53:53.987Z,3.42
2022-08-14T14:56:51.540Z,3.50
2022-08-14T14:59:14.323Z,3.45
2022-08-14T15:01:49.720Z,3.75
2022-08-14T15:04:20.070Z,3.58
2022-08-14T15:06:49.920Z,3.80
2022-08-14T15:09:18.475Z,3.45
2022-08-14T15:11:49.861Z,3.80
2022-08-14T15:14:54.836Z,3.83
2022-08-14T15:17:07.270Z,3.45
2022-08-14T15:19:36.209Z,3.72
2022-08-14T15:22:04.134Z,3.25
2022-08-14T15:24:32.643Z,3.33
2022-08-14T15:27:06.622Z,3.87
2022-08-14T15:29:39.306Z,3.53
2022-08-14T15:32:11.826Z,3.67
2022-08-14T15:34:44.343Z,3.75
2022-08-14T15:37:19.190Z,3.75
2022-08-14T15:39:47.084Z,3.78
2022-08-14T15:42:18.371Z,3.70
2022-08-14T15:44:58.168Z,3.62
2022-08-14T15:47:30.139Z,3.42
2022-08-14T15:50:00.088Z,3.50
2022-08-14T15:52:35.390Z,3.05
2022-08-14T15:55:15.814Z,3.17
2022-08-14T15:58:01.576Z,3.67
2022-08-14T16:00:51.990Z,3.25
2022-08-14T16:03:27.180Z,3.28
2022-08-14T16:06:05.666Z,3.45
2022-08-14T16:08:33.997Z,3.37
2022-08-14T16:11:04.116Z,3.25
2022-08-14T16:13:39.362Z,3.40
2022-08-14T16:16:47.629Z,3.58
2022-08-14T16:19:03.276Z,3.50
2022-08-14T16:21:31.971Z,3.40
2022-08-14T16:24:01.629Z,3.70
2022-08-14T16:26:30.052Z,3.72
2022-08-14T16:29:07.326Z,3.58
2022-08-14T16:31:36.748Z,3.55
2022-08-14T16:34:45.509Z,3.80
2022-08-14T16:36:55.015Z,3.75
2022-08-14T16:39:24.249Z,3.45
2022-08-14T16:41:53.548Z,3.65
2022-08-14T16:44:33.478Z,3.78
2022-08-14T16:47:05.607Z,2.92
2022-08-14T16:50:02.806Z,3.67
2022-08-14T16:52:26.082Z,3.97
2022-08-14T16:55:14.308Z,3.83
2022-08-14T16:57:50.348Z,4.12
2022-08-14T17:00:43.692Z,3.15
2022-08-14T17:03:14.576Z,4.12
2022-08-14T17:05:47.090Z,3.53
2022-08-14T17:08:32.370Z,3.97
2022-08-14T17:11:11.041Z,3.62
2022-08-14T17:13:59.383Z,3.95
2022-08-14T17:16:37.485Z,3.85
2022-08-14T17:19:09.985Z,4.37
2022-08-14T17:21:46.776Z,4.10
2022-08-14T17:24:57.594Z,4.85
2022-08-14T17:27:05.814Z,4.45
2022-08-14T17:29:44.807Z,4.47
2022-08-14T17:32:29.528Z,3.87
2022-08-14T17:35:16.849Z,3.78
2022-08-14T17:37:55.768Z,4.03
2022-08-14T17:40:31.055Z,4.32
2022-08-14T17:43:02.045Z,3.90
2022-08-14T17:45:46.961Z,3.75
2022-08-14T17:49:14.296Z,3.47
2022-08-14T17:51:23.934Z,3.55
2022-08-14T17:54:02.269Z,4.32
2022-08-14T17:56:33.365Z,4.47
2022-08-14T17:59:04.179Z,4.20
2022-08-14T18:01:37.640Z,4.15
2022-08-14T18:04:25.017Z,4.18
2022-08-14T18:07:16.689Z,4.32
2022-08-14T18:09:57.143Z,4.60
2022-08-14T18:12:32.872Z,4.12
2022-08-14T18:15:14.690Z,4.20
2022-08-14T18:17:52.821Z,4.18
2022-08-14T18:21:42.569Z,4.47
2022-08-14T18:23:14.035Z,4.60
2022-08-14T18:25:49.287Z,4.68
2022-08-14T18:28:51.366Z,4.20
2022-08-14T18:31:42.204Z,4.30
2022-08-14T18:34:31.282Z,4.62
2022-08-14T18:37:16.720Z,4.22
2022-08-14T18:40:01.979Z,4.87
2022-08-14T18:42:44.664Z,3.83
2022-08-14T18:45:18.675Z,4.22
2022-08-14T18:50:52.764Z,4.65
2022-08-14T18:53:24.600Z,4.75
2022-08-14T18:55:56.283Z,4.62
2022-08-14T18:58:46.067Z,4.87
2022-08-14T19:01:23.806Z,3.92
2022-08-14T19:03:53.049Z,3.95
2022-08-14T19:06:37.437Z,4.65
2022-08-14T19:09:08.225Z,4.18
2022-08-14T19:11:51.494Z,4.60
2022-08-14T19:14:46.127Z,4.25
2022-08-14T19:18:10.927Z,4.35
2022-08-14T19:20:47.723Z,4.50
2022-08-14T19:23:18.657Z,4.15
2022-08-14T19:26:03.541Z,4.30
2022-08-14T19:28:51.644Z,4.32
2022-08-14T19:31:55.450Z,4.10
2022-08-14T19:34:48.145Z,4.22
2022-08-14T19:37:52.316Z,3.97
2022-08-14T19:40:33.397Z,3.95
2022-08-14T19:43:06.635Z,4.68
2022-08-14T19:45:37.869Z,4.32
2022-08-14T19:48:15.589Z,4.57
2022-08-14T19:50:46.281Z,4.43
2022-08-14T19:53:18.334Z,4.45
2022-08-14T19:55:59.642Z,4.32
2022-08-14T19:58:54.727Z,4.35
2022-08-14T20:01:37.075Z,3.75
2022-08-14T20:04:45.402Z,4.40
2022-08-14T20:07:02.111Z,4.80
2022-08-14T20:11:03.253Z,5.00
2022-08-14T20:12:35.512Z,4.45
2022-08-14T20:15:15.482Z,4.30
2022-08-14T20:17:52.692Z,4.32
2022-08-14T20:20:32.026Z,4.65
2022-08-14T20:23:10.913Z,4.70
2022-08-14T20:25:55.947Z,4.03
2022-08-14T20:28:32.950Z,4.97
2022-08-14T20:31:19.587Z,5.18
2022-08-14T20:34:03.287Z,5.00
2022-08-14T20:36:31.651Z,5.25
2022-08-14T20:39:00.635Z,5.22
2022-08-14T20:41:28.747Z,5.37
2022-08-14T20:44:20.623Z,5.57
2022-08-14T20:46:53.266Z,5.43
2022-08-14T20:49:28.986Z,4.90
2022-08-14T20:52:00.296Z,5.15
2022-08-14T20:54:36.266Z,5.37
2022-08-14T20:57:09.873Z,5.03
2022-08-14T20:59:43.529Z,5.07
2022-08-14T21:02:46.854Z,4.87
2022-08-14T21:05:33.480Z,5.25
2022-08-14T21:08:08.128Z,4.85
2022-08-14T21:10:44.525Z,4.93
2022-08-14T21:13:27.960Z,5.25
2022-08-14T21:16:33.196Z,5.25
2022-08-14T21:18:58.352Z,4.95
2022-08-14T21:21:41.299Z,4.82
2022-08-14T21:24:39.854Z,5.47
2022-08-14T21:27:12.876Z,5.47
2022-08-14T21:29:53.983Z,5.37
2022-08-14T21:32:35.076Z,5.25
2022-08-14T21:35:09.968Z,5.12
2022-08-14T21:37:44.085Z,5.20
2022-08-14T21:40:40.908Z,5.18
2022-08-14T21:43:01.508Z,5.07
2022-08-14T21:45:31.843Z,5.00
2022-08-14T21:48:09.258Z,4.62
2022-08-14T21:51:01.827Z,5.40
2022-08-14T21:53:34.048Z,5.32
2022-08-14T21:56:03.542Z,5.12
2022-08-14T21:58:52.611Z,5.65
2022-08-14T22:01:21.679Z,4.85
2022-08-14T22:03:57.406Z,5.22
2022-08-14T22:06:29.482Z,5.47
2022-08-14T22:08:58.365Z,5.43
2022-08-14T22:11:27.633Z,5.32
2022-08-14T22:14:02.211Z,5.57
2022-08-14T22:17:01.791Z,5.15
2022-08-14T22:19:43.312Z,4.95
2022-08-14T22:22:23.864Z,5.28
2022-08-14T22:25:00.414Z,5.22
2022-08-14T22:27:55.544Z,4.70
2022-08-14T22:30:18.684Z,5.10
2022-08-14T22:32:57.350Z,5.55
2022-08-14T22:35:27.210Z,4.95
2022-08-14T22:38:34.706Z,5.28
2022-08-14T22:40:59.470Z,5.03
2022-08-14T22:43:36.183Z,5.05
2022-08-14T22:46:14.730Z,4.95
2022-08-14T22:48:45.226Z,4.68
2022-08-14T22:51:14.821Z,4.78
2022-08-14T22:53:45.229Z,6.03
2022-08-14T22:56:20.280Z,5.10
2022-08-14T22:58:53.805Z,5.53
2022-08-14T23:01:55.491Z,5.12
2022-08-14T23:04:34.249Z,5.65
2022-08-14T23:07:22.295Z,5.85
2022-08-14T23:09:56.540Z,5.30
2022-08-14T23:12:31.784Z,5.28
2022-08-14T23:15:04.024Z,5.30
2022-08-14T23:17:40.454Z,4.90
2022-08-14T23:20:18.981Z,5.28
2022-08-14T23:22:51.383Z,5.72
2022-08-14T23:25:50.008Z,5.10
2022-08-14T23:28:33.752Z,4.80
2022-08-14T23:31:08.365Z,5.45
2022-08-14T23:33:42.086Z,5.37
2022-08-14T23:36:31.455Z,5.78
2022-08-14T23:39:02.031Z,5.57
2022-08-14T23:41:46.944Z,5.93
2022-08-14T23:44:23.759Z,5.10
2022-08-14T23:46:56.711Z,5.25
2022-08-14T23:49:28.635Z,6.20
2022-08-14T23:52:50.553Z,5.05
2022-08-14T23:55:06.570Z,5.57
2022-08-14T23:57:43.817Z,5.30
